sensor_id;sensor_type;location;lat;lon;timestamp;pressure;altitude;pressure_sealevel;temperature;humidity
68891;BME280;55932;48.702;8.884;2023-02-15T07:13:25;97280;;;-1.7;73
68891;BME280;55932;48.702;8.884;2023-02-15T07:15:55;97280;;;-1.6;72.5
68891;BME280;55932;48.702;8.884;2023-02-15T07:18:25;97290;;;-1.5;72.5
68891;BME280;55932;48.702;8.884;2023-02-15T07:20:55;97280;;;-1.4;72.5
68891;BME280;55932;48.702;8.884;2023-02-15T07:30:47;97280;;;-1;72.5
68891;BME280;55932;48.702;8.884;2023-02-15T07:33:24;97280;;;-0.7;72
68891;BME280;55932;48.702;8.884;2023-02-15T07:35:47;97280;;;-0.7;72
68891;BME280;55932;48.702;8.884;2023-02-15T07:41:13;97280;;;-0.5;72
68891;BME280;55932;48.702;8.884;2023-02-15T07:43:29;97290;;;-0.4;72
68891;BME280;55932;48.702;8.884;2023-02-15T07:46:00;97280;;;-0.2;72
68891;BME280;55932;48.702;8.884;2023-02-15T07:56:12;97270;;;0.7;70.5
68891;BME280;55932;48.702;8.884;2023-02-15T07:58:42;97280;;;0.5;71
68891;BME280;55932;48.702;8.884;2023-02-15T08:01:07;97280;;;0.7;71.5
68891;BME280;55932;48.702;8.884;2023-02-15T08:03:32;97280;;;0.9;72
68891;BME280;55932;48.702;8.884;2023-02-15T08:06:02;97280;;;0.6;73.5
68891;BME280;55932;48.702;8.884;2023-02-15T08:08:20;97290;;;0.8;73.5
68891;BME280;55932;48.702;8.884;2023-02-15T08:11:00;97280;;;0.9;73.5
68891;BME280;55932;48.702;8.884;2023-02-15T08:13:22;97280;;;1;73.5
68891;BME280;55932;48.702;8.884;2023-02-15T08:15:52;97270;;;1.3;73
68891;BME280;55932;48.702;8.884;2023-02-15T08:23:23;97270;;;2.3;71
68891;BME280;55932;48.702;8.884;2023-02-15T08:25:54;97280;;;2.7;69.5
68891;BME280;55932;48.702;8.884;2023-02-15T08:28:24;97280;;;2.8;70.5
68891;BME280;55932;48.702;8.884;2023-02-15T08:33:38;97270;;;3.2;71
68891;BME280;55932;48.702;8.884;2023-02-15T08:36:08;97270;;;4.2;69.5
68891;BME280;55932;48.702;8.884;2023-02-15T08:41:08;97260;;;6.7;65.5
68891;BME280;55932;48.702;8.884;2023-02-15T08:43:38;97250;;;7.2;65.5
68891;BME280;55932;48.702;8.884;2023-02-15T08:46:08;97250;;;7.4;65
68891;BME280;55932;48.702;8.884;2023-02-15T08:50:57;97250;;;7.7;65
68891;BME280;55932;48.702;8.884;2023-02-15T08:53:27;97250;;;7.9;64
68891;BME280;55932;48.702;8.884;2023-02-15T08:55:58;97250;;;8;64.5
68891;BME280;55932;48.702;8.884;2023-02-15T08:58:28;97250;;;8.6;64.5
68891;BME280;55932;48.702;8.884;2023-02-15T09:00:59;97250;;;9.8;65
68891;BME280;55932;48.702;8.884;2023-02-15T09:03:30;97240;;;11.9;62
68891;BME280;55932;48.702;8.884;2023-02-15T09:06:00;97230;;;12.5;62
68891;BME280;55932;48.702;8.884;2023-02-15T09:08:31;97230;;;14.6;58.5
68891;BME280;55932;48.702;8.884;2023-02-15T09:18:53;97230;;;14.4;61.5
68891;BME280;55932;48.702;8.884;2023-02-15T09:21:15;97220;;;16;60
68891;BME280;55932;48.702;8.884;2023-02-15T09:23:45;97210;;;17.4;56
68891;BME280;55932;48.702;8.884;2023-02-15T09:26:15;97210;;;17.3;55.5
68891;BME280;55932;48.702;8.884;2023-02-15T09:31:09;97210;;;16.5;60.5
68891;BME280;55932;48.702;8.884;2023-02-15T09:33:34;97210;;;15.4;61
68891;BME280;55932;48.702;8.884;2023-02-15T09:43:39;97200;;;17.8;58.5
68891;BME280;55932;48.702;8.884;2023-02-15T09:46:11;97200;;;17.6;58
68891;BME280;55932;48.702;8.884;2023-02-15T09:48:38;97200;;;16.6;62.5
68891;BME280;55932;48.702;8.884;2023-02-15T09:54:01;97200;;;17.1;63.5
68891;BME280;55932;48.702;8.884;2023-02-15T09:56:26;97190;;;18;60
68891;BME280;55932;48.702;8.884;2023-02-15T09:58:53;97190;;;18.3;59.5
68891;BME280;55932;48.702;8.884;2023-02-15T10:08:48;97200;;;17;64.5
68891;BME280;55932;48.702;8.884;2023-02-15T10:14:10;97200;;;18;65.5
68891;BME280;55932;48.702;8.884;2023-02-15T10:16:49;97190;;;17.6;65.5
68891;BME280;55932;48.702;8.884;2023-02-15T10:19:00;97190;;;18.4;66
68891;BME280;55932;48.702;8.884;2023-02-15T10:22:29;97200;;;18.4;66
68891;BME280;55932;48.702;8.884;2023-02-15T10:23:58;97190;;;18.7;65.5
68891;BME280;55932;48.702;8.884;2023-02-15T10:43:48;97180;;;18.4;67
68891;BME280;55932;48.702;8.884;2023-02-15T10:46:19;97180;;;19;67.5
68891;BME280;55932;48.702;8.884;2023-02-15T10:48:48;97170;;;19.6;67
68891;BME280;55932;48.702;8.884;2023-02-15T10:51:17;97170;;;19.7;65
68891;BME280;55932;48.702;8.884;2023-02-15T11:01:18;97180;;;18.9;66
68891;BME280;55932;48.702;8.884;2023-02-15T11:04:02;97170;;;19.5;66.5
68891;BME280;55932;48.702;8.884;2023-02-15T11:14:02;97160;;;20.2;67
68891;BME280;55932;48.702;8.884;2023-02-15T11:16:32;97160;;;20.6;67.5
68891;BME280;55932;48.702;8.884;2023-02-15T11:26:34;97140;;;20.5;67.5
68891;BME280;55932;48.702;8.884;2023-02-15T11:29:12;97140;;;20.7;67.5
68891;BME280;55932;48.702;8.884;2023-02-15T11:31:37;97140;;;20.9;67.5
68891;BME280;55932;48.702;8.884;2023-02-15T11:36:24;97140;;;20.6;66
68891;BME280;55932;48.702;8.884;2023-02-15T11:43:56;97140;;;20.9;68
68891;BME280;55932;48.702;8.884;2023-02-15T11:46:24;97140;;;20.7;66.5
68891;BME280;55932;48.702;8.884;2023-02-15T11:48:54;97130;;;20.1;67
68891;BME280;55932;48.702;8.884;2023-02-15T11:51:25;97130;;;20.1;68.5
68891;BME280;55932;48.702;8.884;2023-02-15T11:59:10;97130;;;20.1;68
68891;BME280;55932;48.702;8.884;2023-02-15T12:01:40;97120;;;19.9;68
68891;BME280;55932;48.702;8.884;2023-02-15T12:04:09;97130;;;20;67.5
68891;BME280;55932;48.702;8.884;2023-02-15T12:06:41;97120;;;20.6;68
68891;BME280;55932;48.702;8.884;2023-02-15T12:09:03;97120;;;20.5;67.5
68891;BME280;55932;48.702;8.884;2023-02-15T12:16:29;97120;;;19.4;68.5
68891;BME280;55932;48.702;8.884;2023-02-15T12:19:00;97130;;;18.8;69.5
68891;BME280;55932;48.702;8.884;2023-02-15T12:24:03;97120;;;19.4;69.5
68891;BME280;55932;48.702;8.884;2023-02-15T12:26:31;97120;;;19.7;69
68891;BME280;55932;48.702;8.884;2023-02-15T12:34:03;97110;;;20.7;68
68891;BME280;55932;48.702;8.884;2023-02-15T12:36:33;97110;;;20;69
68891;BME280;55932;48.702;8.884;2023-02-15T12:39:05;97110;;;19.9;69
68891;BME280;55932;48.702;8.884;2023-02-15T12:41:33;97110;;;20.2;68.5
68891;BME280;55932;48.702;8.884;2023-02-15T12:44:07;97100;;;20.3;69
68891;BME280;55932;48.702;8.884;2023-02-15T12:46:55;97100;;;20.8;67.5
68891;BME280;55932;48.702;8.884;2023-02-15T12:49:18;97100;;;20.8;67.5
68891;BME280;55932;48.702;8.884;2023-02-15T12:51:48;97090;;;20.7;68
68891;BME280;55932;48.702;8.884;2023-02-15T12:54:20;97090;;;20.6;68
68891;BME280;55932;48.702;8.884;2023-02-15T12:56:47;97090;;;20.4;68
68891;BME280;55932;48.702;8.884;2023-02-15T13:01:35;97080;;;20.4;67.5
68891;BME280;55932;48.702;8.884;2023-02-15T13:04:08;97080;;;20.6;67.5
68891;BME280;55932;48.702;8.884;2023-02-15T13:06:37;97080;;;20.7;67.5
68891;BME280;55932;48.702;8.884;2023-02-15T13:11:37;97070;;;20.6;67.5
68891;BME280;55932;48.702;8.884;2023-02-15T13:14:16;97070;;;20.7;67.5
68891;BME280;55932;48.702;8.884;2023-02-15T13:16:38;97070;;;21;68
68891;BME280;55932;48.702;8.884;2023-02-15T13:19:41;97060;;;21.3;68
68891;BME280;55932;48.702;8.884;2023-02-15T13:21:39;97060;;;21.1;68
68891;BME280;55932;48.702;8.884;2023-02-15T13:39:26;97050;;;20.9;67
68891;BME280;55932;48.702;8.884;2023-02-15T13:41:56;97040;;;21.3;68
68891;BME280;55932;48.702;8.884;2023-02-15T13:44:26;97040;;;20.8;67
68891;BME280;55932;48.702;8.884;2023-02-15T13:47:13;97040;;;20.4;67.5
68891;BME280;55932;48.702;8.884;2023-02-15T13:49:42;97040;;;20.4;68
68891;BME280;55932;48.702;8.884;2023-02-15T13:54:48;97030;;;21.1;67.5
68891;BME280;55932;48.702;8.884;2023-02-15T13:59:13;97030;;;21.5;66.5
68891;BME280;55932;48.702;8.884;2023-02-15T14:02:38;97030;;;21.3;66.5
68891;BME280;55932;48.702;8.884;2023-02-15T14:04:17;97030;;;21.1;67
68891;BME280;55932;48.702;8.884;2023-02-15T14:06:45;97020;;;20.7;68
68891;BME280;55932;48.702;8.884;2023-02-15T14:16:48;97020;;;21.1;68
68891;BME280;55932;48.702;8.884;2023-02-15T14:19:17;97020;;;20.8;68
68891;BME280;55932;48.702;8.884;2023-02-15T14:21:49;97020;;;20.2;68
68891;BME280;55932;48.702;8.884;2023-02-15T14:24:26;97030;;;19.7;68.5
68891;BME280;55932;48.702;8.884;2023-02-15T14:26:59;97030;;;19.4;69.5
68891;BME280;55932;48.702;8.884;2023-02-15T14:29:37;97030;;;19.5;69
68891;BME280;55932;48.702;8.884;2023-02-15T14:31:59;97020;;;19.4;69.5
68891;BME280;55932;48.702;8.884;2023-02-15T14:36:52;97020;;;19.4;69
68891;BME280;55932;48.702;8.884;2023-02-15T14:39:26;97030;;;19.4;69
68891;BME280;55932;48.702;8.884;2023-02-15T14:47:00;97030;;;19.3;69
68891;BME280;55932;48.702;8.884;2023-02-15T14:49:26;97030;;;19.4;69
68891;BME280;55932;48.702;8.884;2023-02-15T14:51:57;97030;;;19.3;68.5
68891;BME280;55932;48.702;8.884;2023-02-15T14:59:37;97040;;;18.7;69
68891;BME280;55932;48.702;8.884;2023-02-15T15:02:20;97040;;;18.5;69
68891;BME280;55932;48.702;8.884;2023-02-15T15:04:38;97040;;;17.9;69
68891;BME280;55932;48.702;8.884;2023-02-15T15:12:37;97040;;;16.5;70.5
68891;BME280;55932;48.702;8.884;2023-02-15T15:14:47;97040;;;16.2;70.5
68891;BME280;55932;48.702;8.884;2023-02-15T15:20:00;97050;;;15.7;69
68891;BME280;55932;48.702;8.884;2023-02-15T15:24:48;97050;;;14.5;69
68891;BME280;55932;48.702;8.884;2023-02-15T15:29:42;97050;;;13.7;70
68891;BME280;55932;48.702;8.884;2023-02-15T15:34:54;97050;;;13.3;71
68891;BME280;55932;48.702;8.884;2023-02-15T15:40:55;97050;;;12.6;71
68891;BME280;55932;48.702;8.884;2023-02-15T15:42:50;97050;;;12.3;71.5
68891;BME280;55932;48.702;8.884;2023-02-15T15:44:54;97060;;;12;71.5
68891;BME280;55932;48.702;8.884;2023-02-15T15:47:58;97060;;;11.8;71.5
68891;BME280;55932;48.702;8.884;2023-02-15T15:55:14;97060;;;11.2;72
68891;BME280;55932;48.702;8.884;2023-02-15T15:57:29;97060;;;10.9;72
68891;BME280;55932;48.702;8.884;2023-02-15T15:59:57;97060;;;10.8;72.5
68891;BME280;55932;48.702;8.884;2023-02-15T16:04:51;97070;;;10.3;72.5
68891;BME280;55932;48.702;8.884;2023-02-15T16:07:23;97070;;;10.1;72.5
68891;BME280;55932;48.702;8.884;2023-02-15T16:09:57;97080;;;9.8;72.5
68891;BME280;55932;48.702;8.884;2023-02-15T16:12:26;97080;;;9.6;73
68891;BME280;55932;48.702;8.884;2023-02-15T16:15:04;97070;;;9.3;73
68891;BME280;55932;48.702;8.884;2023-02-15T16:17:40;97080;;;9.1;73
68891;BME280;55932;48.702;8.884;2023-02-15T16:22:26;97080;;;8.5;73.5
68891;BME280;55932;48.702;8.884;2023-02-15T16:25:16;97090;;;8.2;73.5
68891;BME280;55932;48.702;8.884;2023-02-15T16:27:36;97090;;;8;73.5
68891;BME280;55932;48.702;8.884;2023-02-15T16:30:16;97080;;;7.7;73.5
68891;BME280;55932;48.702;8.884;2023-02-15T16:32:30;97090;;;7.5;73.5
68891;BME280;55932;48.702;8.884;2023-02-15T16:35:01;97090;;;7.4;73
68891;BME280;55932;48.702;8.884;2023-02-15T16:37:33;97090;;;7.3;73
68891;BME280;55932;48.702;8.884;2023-02-15T16:40:03;97090;;;7.1;73
68891;BME280;55932;48.702;8.884;2023-02-15T16:42:40;97100;;;6.9;73
68891;BME280;55932;48.702;8.884;2023-02-15T16:50:18;97110;;;6.5;73.5
68891;BME280;55932;48.702;8.884;2023-02-15T16:52:43;97110;;;6.5;73.5
68891;BME280;55932;48.702;8.884;2023-02-15T16:55:28;97120;;;6.3;73.5
68891;BME280;55932;48.702;8.884;2023-02-15T16:57:43;97120;;;6.2;73.5
68891;BME280;55932;48.702;8.884;2023-02-15T17:00:18;97120;;;6;73.5
68891;BME280;55932;48.702;8.884;2023-02-15T17:03:00;97120;;;5.8;73.5
68891;BME280;55932;48.702;8.884;2023-02-15T17:07:48;97130;;;5.5;73.5
68891;BME280;55932;48.702;8.884;2023-02-15T17:15:33;97140;;;5.5;73.5
68891;BME280;55932;48.702;8.884;2023-02-15T17:17:50;97140;;;5.4;73
68891;BME280;55932;48.702;8.884;2023-02-15T17:20:20;97140;;;5.4;73
68891;BME280;55932;48.702;8.884;2023-02-15T17:25:18;97140;;;5.3;73.5
68891;BME280;55932;48.702;8.884;2023-02-15T17:27:44;97140;;;5.2;73.5
68891;BME280;55932;48.702;8.884;2023-02-15T17:30:17;97140;;;5.1;73.5
68891;BME280;55932;48.702;8.884;2023-02-15T17:32:55;97140;;;5.1;73.5
68891;BME280;55932;48.702;8.884;2023-02-15T17:40:34;97150;;;4.7;73.5
68891;BME280;55932;48.702;8.884;2023-02-15T17:43:09;97140;;;4.6;74
68891;BME280;55932;48.702;8.884;2023-02-15T17:45:30;97150;;;4.5;74
68891;BME280;55932;48.702;8.884;2023-02-15T17:47:56;97150;;;4.6;74
68891;BME280;55932;48.702;8.884;2023-02-15T17:50:22;97140;;;4.5;74
68891;BME280;55932;48.702;8.884;2023-02-15T17:52:52;97150;;;4.3;74
68891;BME280;55932;48.702;8.884;2023-02-15T17:55:23;97150;;;4.1;74
68891;BME280;55932;48.702;8.884;2023-02-15T17:57:46;97150;;;4;74
68891;BME280;55932;48.702;8.884;2023-02-15T18:02:47;97150;;;4.1;74
68891;BME280;55932;48.702;8.884;2023-02-15T18:05:20;97150;;;4.2;73.5
68891;BME280;55932;48.702;8.884;2023-02-15T18:07:50;97150;;;4;73.5
68891;BME280;55932;48.702;8.884;2023-02-15T18:10:20;97150;;;4;73.5
68891;BME280;55932;48.702;8.884;2023-02-15T18:12:51;97150;;;4;73.5
68891;BME280;55932;48.702;8.884;2023-02-15T18:15:22;97150;;;4.1;73.5
68891;BME280;55932;48.702;8.884;2023-02-15T18:17:52;97150;;;4.2;73.5
68891;BME280;55932;48.702;8.884;2023-02-15T18:20:23;97150;;;4.2;73.5
68891;BME280;55932;48.702;8.884;2023-02-15T18:22:54;97150;;;4.1;73.5
68891;BME280;55932;48.702;8.884;2023-02-15T18:35:34;97160;;;3.4;73.5
68891;BME280;55932;48.702;8.884;2023-02-15T18:38:04;97150;;;3.3;73.5
68891;BME280;55932;48.702;8.884;2023-02-15T18:40:39;97150;;;3.2;73.5
68891;BME280;55932;48.702;8.884;2023-02-15T18:45:31;97160;;;3.1;73.5
68891;BME280;55932;48.702;8.884;2023-02-15T18:48:01;97160;;;3.1;73.5
68891;BME280;55932;48.702;8.884;2023-02-15T18:50:34;97150;;;3;73
68891;BME280;55932;48.702;8.884;2023-02-15T18:53:04;97160;;;2.9;73.5
68891;BME280;55932;48.702;8.884;2023-02-15T19:03:08;97160;;;2.9;73
68891;BME280;55932;48.702;8.884;2023-02-15T19:05:37;97150;;;2.8;73
68891;BME280;55932;48.702;8.884;2023-02-15T19:08:16;97140;;;2.8;73
68891;BME280;55932;48.702;8.884;2023-02-15T19:10:45;97140;;;2.8;73
68891;BME280;55932;48.702;8.884;2023-02-15T19:13:16;97140;;;2.8;73
68891;BME280;55932;48.702;8.884;2023-02-15T19:15:47;97140;;;2.8;73
68891;BME280;55932;48.702;8.884;2023-02-15T19:20:43;97140;;;2.8;73
68891;BME280;55932;48.702;8.884;2023-02-15T19:23:17;97140;;;2.9;72.5
68891;BME280;55932;48.702;8.884;2023-02-15T19:30:45;97140;;;2.7;73
68891;BME280;55932;48.702;8.884;2023-02-15T19:33:17;97140;;;2.7;73
68891;BME280;55932;48.702;8.884;2023-02-15T19:35:48;97130;;;2.8;72.5
68891;BME280;55932;48.702;8.884;2023-02-15T19:38:19;97130;;;2.9;72.5
68891;BME280;55932;48.702;8.884;2023-02-15T19:43:25;97130;;;2.9;72.5
68891;BME280;55932;48.702;8.884;2023-02-15T19:45:56;97120;;;2.9;72.5
68891;BME280;55932;48.702;8.884;2023-02-15T19:48:27;97120;;;2.9;72.5
68891;BME280;55932;48.702;8.884;2023-02-15T19:55:53;97120;;;2.9;72.5
68891;BME280;55932;48.702;8.884;2023-02-15T19:58:24;97120;;;2.9;72.5
68891;BME280;55932;48.702;8.884;2023-02-15T20:00:55;97120;;;3;72.5
68891;BME280;55932;48.702;8.884;2023-02-15T20:03:26;97110;;;3.2;72.5
68891;BME280;55932;48.702;8.884;2023-02-15T20:08:33;97120;;;3.1;72.5
68891;BME280;55932;48.702;8.884;2023-02-15T20:11:07;97120;;;2.9;72.5
68891;BME280;55932;48.702;8.884;2023-02-15T20:13:35;97120;;;2.7;73
68891;BME280;55932;48.702;8.884;2023-02-15T20:23:33;97120;;;2.3;73
68891;BME280;55932;48.702;8.884;2023-02-15T20:26:17;97130;;;2.3;73
68891;BME280;55932;48.702;8.884;2023-02-15T20:28:33;97120;;;2.2;73
68891;BME280;55932;48.702;8.884;2023-02-15T20:31:04;97120;;;2.1;73
68891;BME280;55932;48.702;8.884;2023-02-15T20:33:34;97130;;;2.1;73
68891;BME280;55932;48.702;8.884;2023-02-15T20:36:12;97130;;;2.1;72.5
68891;BME280;55932;48.702;8.884;2023-02-15T20:38:43;97120;;;2.4;72.5
68891;BME280;55932;48.702;8.884;2023-02-15T20:41:15;97120;;;2.7;72
68891;BME280;55932;48.702;8.884;2023-02-15T20:43:38;97110;;;2.8;72
68891;BME280;55932;48.702;8.884;2023-02-15T20:51:14;97120;;;2.1;73
68891;BME280;55932;48.702;8.884;2023-02-15T20:53:41;97130;;;1.9;73
68891;BME280;55932;48.702;8.884;2023-02-15T20:56:16;97130;;;1.9;73
68891;BME280;55932;48.702;8.884;2023-02-15T20:58:43;97120;;;1.9;73
68891;BME280;55932;48.702;8.884;2023-02-15T21:01:14;97120;;;2.1;72.5
68891;BME280;55932;48.702;8.884;2023-02-15T21:03:44;97120;;;2.2;72.5
68891;BME280;55932;48.702;8.884;2023-02-15T21:06:22;97120;;;2.2;72.5
68891;BME280;55932;48.702;8.884;2023-02-15T21:11:23;97120;;;2;72.5
68891;BME280;55932;48.702;8.884;2023-02-15T21:13:55;97120;;;2.3;72
68891;BME280;55932;48.702;8.884;2023-02-15T21:16:26;97120;;;2.5;72
68891;BME280;55932;48.702;8.884;2023-02-15T21:19:09;97120;;;2.7;72
68891;BME280;55932;48.702;8.884;2023-02-15T21:21:34;97110;;;2.8;72
68891;BME280;55932;48.702;8.884;2023-02-15T21:26:42;97110;;;2.3;72.5
68891;BME280;55932;48.702;8.884;2023-02-15T21:29:16;97110;;;1.9;73
68891;BME280;55932;48.702;8.884;2023-02-15T21:31:35;97110;;;1.7;73
68891;BME280;55932;48.702;8.884;2023-02-15T21:44:13;97100;;;1.8;73
68891;BME280;55932;48.702;8.884;2023-02-15T21:46:38;97100;;;1.7;72.5
68891;BME280;55932;48.702;8.884;2023-02-15T21:49:19;97110;;;1.7;72.5
68891;BME280;55932;48.702;8.884;2023-02-15T21:54:03;97110;;;1.7;72.5
68891;BME280;55932;48.702;8.884;2023-02-15T21:56:33;97110;;;1.8;72.5
68891;BME280;55932;48.702;8.884;2023-02-15T22:04:10;97110;;;1.9;72.5
68891;BME280;55932;48.702;8.884;2023-02-15T22:09:14;97120;;;2.1;72
68891;BME280;55932;48.702;8.884;2023-02-15T22:11:43;97120;;;2.2;72
68891;BME280;55932;48.702;8.884;2023-02-15T22:14:31;97120;;;2.2;72
68891;BME280;55932;48.702;8.884;2023-02-15T22:16:38;97120;;;2.2;72
68891;BME280;55932;48.702;8.884;2023-02-15T22:19:16;97110;;;2;72
68891;BME280;55932;48.702;8.884;2023-02-15T22:24:11;97120;;;2.1;72
68891;BME280;55932;48.702;8.884;2023-02-15T22:26:42;97110;;;2;72
68891;BME280;55932;48.702;8.884;2023-02-15T22:29:14;97110;;;1.8;72
68891;BME280;55932;48.702;8.884;2023-02-15T22:31:44;97120;;;1.9;72
68891;BME280;55932;48.702;8.884;2023-02-15T22:34:21;97120;;;1.9;72
68891;BME280;55932;48.702;8.884;2023-02-15T22:36:46;97110;;;1.7;72
68891;BME280;55932;48.702;8.884;2023-02-15T22:39:16;97100;;;1.5;72.5
68891;BME280;55932;48.702;8.884;2023-02-15T22:41:40;97110;;;1.3;72.5
68891;BME280;55932;48.702;8.884;2023-02-15T22:49:13;97110;;;1.1;72.5
68891;BME280;55932;48.702;8.884;2023-02-15T22:51:47;97100;;;1;72.5
68891;BME280;55932;48.702;8.884;2023-02-15T22:54:15;97110;;;1;72.5
68891;BME280;55932;48.702;8.884;2023-02-15T22:56:46;97110;;;0.9;72.5
68891;BME280;55932;48.702;8.884;2023-02-15T22:59:24;97110;;;0.9;72.5
68891;BME280;55932;48.702;8.884;2023-02-15T23:01:54;97110;;;1;72
68891;BME280;55932;48.702;8.884;2023-02-15T23:04:26;97110;;;0.9;72
68891;BME280;55932;48.702;8.884;2023-02-15T23:11:50;97120;;;0.8;72
68891;BME280;55932;48.702;8.884;2023-02-15T23:14:23;97120;;;0.8;72
68891;BME280;55932;48.702;8.884;2023-02-15T23:16:52;97120;;;0.8;72
68891;BME280;55932;48.702;8.884;2023-02-15T23:21:57;97120;;;0.7;72
68891;BME280;55932;48.702;8.884;2023-02-15T23:24:26;97120;;;0.7;72
68891;BME280;55932;48.702;8.884;2023-02-15T23:27:01;97120;;;0.7;72
68891;BME280;55932;48.702;8.884;2023-02-15T23:29:32;97120;;;0.7;72
68891;BME280;55932;48.702;8.884;2023-02-15T23:32:03;97130;;;0.7;72
68891;BME280;55932;48.702;8.884;2023-02-15T23:34:34;97120;;;0.6;72
68891;BME280;55932;48.702;8.884;2023-02-15T23:37:11;97120;;;0.6;72
68891;BME280;55932;48.702;8.884;2023-02-15T23:39:42;97120;;;0.6;72.5
68891;BME280;55932;48.702;8.884;2023-02-15T23:44:36;97120;;;0.6;72.5
68891;BME280;55932;48.702;8.884;2023-02-15T23:47:23;97120;;;0.6;72.5
68891;BME280;55932;48.702;8.884;2023-02-15T23:49:38;97110;;;0.6;72
68891;BME280;55932;48.702;8.884;2023-02-15T23:52:12;97110;;;0.5;72
68891;BME280;55932;48.702;8.884;2023-02-15T23:54:40;97110;;;0.5;72
68891;BME280;55932;48.702;8.884;2023-02-15T23:57:11;97110;;;0.6;72
68891;BME280;55932;48.702;8.884;2023-02-15T23:59:41;97110;;;0.6;72
